Ncc Rabigh — HZQA — position and weather

sailwx.info

Track history (hours):
 
Tides and Currents Weather Stations Pressure Air Temp Water Temp Dewpoint Dewpoint Depression Visibility Wind Speed Wind Dir Waves Ship Positions

Ncc Rabigh

Last reported at 2017-Jul-21 18:28 UTC. Time now 2017-Jul-21 18:53 UTC.
Position N 30°25' E 121°47'.

Length 183 m; draft 7 m.

Type: Ship (hazmat cat B). MMSI: 403575000.

Date/timePositionNaut miles runAvg speedWind from/ knotsBaromVisibWave heightAir tempDewpointWater temp
2017-Jul-21 18:28N 30°25' E 121°47'0 0.0
2017-Jul-21 17:52N 30°25' E 121°47'0 0.0
2017-Jul-21 17:04N 30°25' E 121°47'0 0.1
2017-Jul-21 16:58N 30°25' E 121°47'0 0.1
2017-Jul-21 15:43N 30°25' E 121°47'0 0.2
2017-Jul-21 15:04N 30°25' E 121°46'0 0.0
2017-Jul-21 14:52N 30°25' E 121°46'0 0.1
2017-Jul-21 13:52N 30°25' E 121°46'0 0.0
2017-Jul-21 11:13N 30°25' E 121°46'0 0.0
2017-Jul-21 10:58N 30°25' E 121°46'0 0.0
2017-Jul-21 10:28N 30°25' E 121°46'0 0.0
2017-Jul-20 22:34N 30°25' E 121°46'0 0.0
2017-Jul-20 22:25N 30°25' E 121°46'0 0.0
2017-Jul-20 21:40N 30°25' E 121°46'0 0.5
2017-Jul-20 21:28N 30°25' E 121°47'0 0.3
2017-Jul-20 20:55N 30°25' E 121°47'0 0.0
2017-Jul-20 20:22N 30°25' E 121°47'0 0.0
2017-Jul-20 19:52N 30°25' E 121°47'0 0.1
2017-Jul-20 19:22N 30°25' E 121°47'0 0.1
2017-Jul-20 18:55N 30°25' E 121°47'0 0.0
2017-Jul-20 17:25N 30°25' E 121°47'0 0.0
2017-Jul-20 16:58N 30°25' E 121°47'0 0.0
2017-Jul-20 16:25N 30°25' E 121°47'0 0.0
2017-Jul-20 14:59N 30°25' E 121°47'0 0.2
2017-Jul-20 13:55N 30°25' E 121°46'0 0.0
2017-Jul-20 09:01N 30°25' E 121°47'1 5.1
2017-Jul-20 08:44N 30°26' E 121°48'411.7
2017-Jul-20 08:22N 30°27' E 121°53'612.8
2017-Jul-20 07:55N 30°30' E 121°59'712.5
2017-Jul-20 07:19N 30°33' E 122°07'413.0
2017-Jul-20 07:00N 30°34' E 122°11'815.5
2017-Jul-20 06:30N 30°41' E 122°15'713.9
2017-Jul-20 05:58N 30°48' E 122°18'612.9
2017-Jul-20 05:31N 30°51' E 122°24'713.8
2017-Jul-20 05:00N 30°55' E 122°30'815.4
2017-Jul-20 04:30N 31°03' E 122°31'612.4
2017-Jul-20 03:59N 31°06' E 122°24'714.1
2017-Jul-20 03:30N 31°07' E 122°17'714.4
2017-Jul-20 02:59N 31°11' E 122°10'714.2
2017-Jul-20 02:30N 31°14' E 122°02'714.4
2017-Jul-20 02:00N 31°16' E 121°54'713.5
2017-Jul-20 01:30N 31°18' E 121°47'510.5
2017-Jul-20 01:00N 31°20' E 121°41'2 3.3
2017-Jul-20 00:30N 31°21' E 121°39'1 3.0
2017-Jul-20 00:00N 31°22' E 121°38'3 6.3
2017-Jul-19 23:30N 31°23' E 121°35'510.9
2017-Jul-19 23:00N 31°26' E 121°29'5 9.6
2017-Jul-19 22:30N 31°30' E 121°26'5 9.5
2017-Jul-19 22:00N 31°32' E 121°21'2 2.8
2017-Jul-19 21:27N 31°34' E 121°21'0 0.0
2017-Jul-19 20:57N 31°34' E 121°21'0 0.0
2017-Jul-19 20:30N 31°34' E 121°21'0 0.0
2017-Jul-19 19:57N 31°34' E 121°21'0 0.0
2017-Jul-19 19:24N 31°34' E 121°21'0 0.0
2017-Jul-19 18:57N 31°34' E 121°21'0 0.0
2017-Jul-19 18:30N 31°34' E 121°21'0 0.0
2017-Jul-19 18:00N 31°34' E 121°21'0 0.0
2017-Jul-19 17:30N 31°34' E 121°21'0 0.1
2017-Jul-19 17:00N 31°34' E 121°21'0 0.0
2017-Jul-19 16:30N 31°34' E 121°21'0 0.1
2017-Jul-19 16:00N 31°34' E 121°21'0 0.1
2017-Jul-19 15:30N 31°34' E 121°21'0 0.1
2017-Jul-19 15:00N 31°34' E 121°21'1 1.1
2017-Jul-19 14:30N 31°34' E 121°20'5 9.1
2017-Jul-19 14:00N 31°37' E 121°16'612.4
2017-Jul-19 13:30N 31°41' E 121°10'713.7
2017-Jul-19 13:00N 31°45' E 121°04'713.4
2017-Jul-19 12:30N 31°47' E 120°57'611.2
2017-Jul-19 11:58N 31°52' E 120°53'1911.3
2017-Jul-19 10:16N 32°01' E 120°33'413.9
2017-Jul-19 09:59N 32°02' E 120°29'713.9
2017-Jul-19 09:30N 31°59' E 120°21'714.1
2017-Jul-19 08:59N 31°56' E 120°14'0 0.9
2017-Jul-19 08:28N 31°56' E 120°14'0 0.0
2017-Jul-19 07:58N 31°56' E 120°14'0 0.0
2017-Jul-19 04:16N 31°56' E 120°14'0 0.1
2017-Jul-19 03:34N 31°56' E 120°14'0 0.3
2017-Jul-19 03:23N 31°56' E 120°14'0 0.0
2017-Jul-19 01:52N 31°56' E 120°14'0 0.0
2017-Jul-19 00:58N 31°56' E 120°14'0 0.1
2017-Jul-19 00:17N 31°56' E 120°14'0 0.0
2017-Jul-18 23:47N 31°56' E 120°14'0 0.0
2017-Jul-18 23:29N 31°56' E 120°14'0 0.0
2017-Jul-18 22:52N 31°56' E 120°14'0 0.0
2017-Jul-18 22:28N 31°56' E 120°14'0 0.1
2017-Jul-18 21:58N 31°56' E 120°14'0 0.1
2017-Jul-18 21:28N 31°56' E 120°14'0 0.0
2017-Jul-18 20:53N 31°56' E 120°14'0 0.0
2017-Jul-18 20:23N 31°56' E 120°14'0 0.0
2017-Jul-18 19:46N 31°56' E 120°14'0 0.0
2017-Jul-18 19:10N 31°56' E 120°14'0 0.0
2017-Jul-18 18:46N 31°56' E 120°14'0 0.0
2017-Jul-18 17:22N 31°56' E 120°14'0 0.0
2017-Jul-18 16:59N 31°56' E 120°14'0 0.0
2017-Jul-18 16:29N 31°56' E 120°14'0 0.0
2017-Jul-18 15:46N 31°56' E 120°14'0 0.0
2017-Jul-18 15:16N 31°56' E 120°14'0 0.0
2017-Jul-18 14:40N 31°56' E 120°14'0 0.0
2017-Jul-18 12:46N 31°56' E 120°14'0 0.0
2017-Jul-18 11:17N 31°56' E 120°14'0 0.0
2017-Jul-18 09:22N 31°56' E 120°14'0 0.1
2017-Jul-18 08:41N 31°56' E 120°14'0 0.2
2017-Jul-18 08:22N 31°56' E 120°14'0 0.1
2017-Jul-18 07:53N 31°56' E 120°14'0 0.0
2017-Jul-18 06:22N 31°56' E 120°14'0 0.0
2017-Jul-18 05:58N 31°56' E 120°14'0 0.0
2017-Jul-18 04:22N 31°56' E 120°14'0 0.0
2017-Jul-18 02:28N 31°56' E 120°14'0 0.1
2017-Jul-18 01:58N 31°56' E 120°14'0 0.0
2017-Jul-18 01:28N 31°56' E 120°14'0 0.1
2017-Jul-18 00:53N 31°56' E 120°14'0 0.0
2017-Jul-18 00:23N 31°56' E 120°14'0 0.0
2017-Jul-17 23:05N 31°56' E 120°14'0 0.0
2017-Jul-17 22:40N 31°56' E 120°14'0 0.0
2017-Jul-17 20:46N 31°56' E 120°14'0 0.2
2017-Jul-17 20:29N 31°56' E 120°14'0 0.0
2017-Jul-17 19:11N 31°56' E 120°14'0 0.0
2017-Jul-17 18:58N 31°56' E 120°14'0 0.0
2017-Jul-17 18:28N 31°56' E 120°14'0 0.1
2017-Jul-17 17:58N 31°56' E 120°14'0 0.1
2017-Jul-17 17:23N 31°56' E 120°14'0 0.0
2017-Jul-17 16:52N 31°56' E 120°14'0 0.0
2017-Jul-17 16:10N 31°56' E 120°14'  
Track history (hours):
 
Tides and Currents Weather Stations Pressure Air Temp Water Temp Dewpoint Dewpoint Depression Visibility Wind Speed Wind Dir Waves Ship Positions

Ncc Rabigh

Last reported at 2017-Jul-21 18:28 UTC. Time now 2017-Jul-21 18:53 UTC.
Position N 30°25' E 121°47'.

Length 183 m; draft 7 m.

Type: Ship (hazmat cat B). MMSI: 403575000.

Date/timePositionNaut miles runAvg speedWind from/ knotsBaromVisibWave heightAir tempDewpointWater temp
2017-Jul-21 18:28N 30°25' E 121°47'0 0.0
2017-Jul-21 17:52N 30°25' E 121°47'0 0.0
2017-Jul-21 17:04N 30°25' E 121°47'0 0.1
2017-Jul-21 16:58N 30°25' E 121°47'0 0.1
2017-Jul-21 15:43N 30°25' E 121°47'0 0.2
2017-Jul-21 15:04N 30°25' E 121°46'0 0.0
2017-Jul-21 14:52N 30°25' E 121°46'0 0.1
2017-Jul-21 13:52N 30°25' E 121°46'0 0.0
2017-Jul-21 11:13N 30°25' E 121°46'0 0.0
2017-Jul-21 10:58N 30°25' E 121°46'0 0.0
2017-Jul-21 10:28N 30°25' E 121°46'0 0.0
2017-Jul-20 22:34N 30°25' E 121°46'0 0.0
2017-Jul-20 22:25N 30°25' E 121°46'0 0.0
2017-Jul-20 21:40N 30°25' E 121°46'0 0.5
2017-Jul-20 21:28N 30°25' E 121°47'0 0.3
2017-Jul-20 20:55N 30°25' E 121°47'0 0.0
2017-Jul-20 20:22N 30°25' E 121°47'0 0.0
2017-Jul-20 19:52N 30°25' E 121°47'0 0.1
2017-Jul-20 19:22N 30°25' E 121°47'0 0.1
2017-Jul-20 18:55N 30°25' E 121°47'0 0.0
2017-Jul-20 17:25N 30°25' E 121°47'0 0.0
2017-Jul-20 16:58N 30°25' E 121°47'0 0.0
2017-Jul-20 16:25N 30°25' E 121°47'0 0.0
2017-Jul-20 14:59N 30°25' E 121°47'0 0.2
2017-Jul-20 13:55N 30°25' E 121°46'0 0.0
2017-Jul-20 09:01N 30°25' E 121°47'1 5.1
2017-Jul-20 08:44N 30°26' E 121°48'411.7
2017-Jul-20 08:22N 30°27' E 121°53'612.8
2017-Jul-20 07:55N 30°30' E 121°59'712.5
2017-Jul-20 07:19N 30°33' E 122°07'413.0
2017-Jul-20 07:00N 30°34' E 122°11'815.5
2017-Jul-20 06:30N 30°41' E 122°15'713.9
2017-Jul-20 05:58N 30°48' E 122°18'612.9
2017-Jul-20 05:31N 30°51' E 122°24'713.8
2017-Jul-20 05:00N 30°55' E 122°30'815.4
2017-Jul-20 04:30N 31°03' E 122°31'612.4
2017-Jul-20 03:59N 31°06' E 122°24'714.1
2017-Jul-20 03:30N 31°07' E 122°17'714.4
2017-Jul-20 02:59N 31°11' E 122°10'714.2
2017-Jul-20 02:30N 31°14' E 122°02'714.4
2017-Jul-20 02:00N 31°16' E 121°54'713.5
2017-Jul-20 01:30N 31°18' E 121°47'510.5
2017-Jul-20 01:00N 31°20' E 121°41'2 3.3
2017-Jul-20 00:30N 31°21' E 121°39'1 3.0
2017-Jul-20 00:00N 31°22' E 121°38'3 6.3
2017-Jul-19 23:30N 31°23' E 121°35'510.9
2017-Jul-19 23:00N 31°26' E 121°29'5 9.6
2017-Jul-19 22:30N 31°30' E 121°26'5 9.5
2017-Jul-19 22:00N 31°32' E 121°21'2 2.8
2017-Jul-19 21:27N 31°34' E 121°21'0 0.0
2017-Jul-19 20:57N 31°34' E 121°21'0 0.0
2017-Jul-19 20:30N 31°34' E 121°21'0 0.0
2017-Jul-19 19:57N 31°34' E 121°21'0 0.0
2017-Jul-19 19:24N 31°34' E 121°21'0 0.0
2017-Jul-19 18:57N 31°34' E 121°21'0 0.0
2017-Jul-19 18:30N 31°34' E 121°21'0 0.0
2017-Jul-19 18:00N 31°34' E 121°21'0 0.0
2017-Jul-19 17:30N 31°34' E 121°21'0 0.1
2017-Jul-19 17:00N 31°34' E 121°21'0 0.0
2017-Jul-19 16:30N 31°34' E 121°21'0 0.1
2017-Jul-19 16:00N 31°34' E 121°21'0 0.1
2017-Jul-19 15:30N 31°34' E 121°21'0 0.1
2017-Jul-19 15:00N 31°34' E 121°21'1 1.1
2017-Jul-19 14:30N 31°34' E 121°20'5 9.1
2017-Jul-19 14:00N 31°37' E 121°16'612.4
2017-Jul-19 13:30N 31°41' E 121°10'713.7
2017-Jul-19 13:00N 31°45' E 121°04'713.4
2017-Jul-19 12:30N 31°47' E 120°57'611.2
2017-Jul-19 11:58N 31°52' E 120°53'1911.3
2017-Jul-19 10:16N 32°01' E 120°33'413.9
2017-Jul-19 09:59N 32°02' E 120°29'713.9
2017-Jul-19 09:30N 31°59' E 120°21'714.1
2017-Jul-19 08:59N 31°56' E 120°14'0 0.9
2017-Jul-19 08:28N 31°56' E 120°14'0 0.0
2017-Jul-19 07:58N 31°56' E 120°14'0 0.0
2017-Jul-19 04:16N 31°56' E 120°14'0 0.1
2017-Jul-19 03:34N 31°56' E 120°14'0 0.3
2017-Jul-19 03:23N 31°56' E 120°14'0 0.0
2017-Jul-19 01:52N 31°56' E 120°14'0 0.0
2017-Jul-19 00:58N 31°56' E 120°14'0 0.1
2017-Jul-19 00:17N 31°56' E 120°14'0 0.0
2017-Jul-18 23:47N 31°56' E 120°14'0 0.0
2017-Jul-18 23:29N 31°56' E 120°14'0 0.0
2017-Jul-18 22:52N 31°56' E 120°14'0 0.0
2017-Jul-18 22:28N 31°56' E 120°14'0 0.1
2017-Jul-18 21:58N 31°56' E 120°14'0 0.1
2017-Jul-18 21:28N 31°56' E 120°14'0 0.0
2017-Jul-18 20:53N 31°56' E 120°14'0 0.0
2017-Jul-18 20:23N 31°56' E 120°14'0 0.0
2017-Jul-18 19:46N 31°56' E 120°14'0 0.0
2017-Jul-18 19:10N 31°56' E 120°14'0 0.0
2017-Jul-18 18:46N 31°56' E 120°14'0 0.0
2017-Jul-18 17:22N 31°56' E 120°14'0 0.0
2017-Jul-18 16:59N 31°56' E 120°14'0 0.0
2017-Jul-18 16:29N 31°56' E 120°14'0 0.0
2017-Jul-18 15:46N 31°56' E 120°14'0 0.0
2017-Jul-18 15:16N 31°56' E 120°14'0 0.0
2017-Jul-18 14:40N 31°56' E 120°14'0 0.0
2017-Jul-18 12:46N 31°56' E 120°14'0 0.0
2017-Jul-18 11:17N 31°56' E 120°14'0 0.0
2017-Jul-18 09:22N 31°56' E 120°14'0 0.1
2017-Jul-18 08:41N 31°56' E 120°14'0 0.2
2017-Jul-18 08:22N 31°56' E 120°14'0 0.1
2017-Jul-18 07:53N 31°56' E 120°14'0 0.0
2017-Jul-18 06:22N 31°56' E 120°14'0 0.0
2017-Jul-18 05:58N 31°56' E 120°14'0 0.0
2017-Jul-18 04:22N 31°56' E 120°14'0 0.0
2017-Jul-18 02:28N 31°56' E 120°14'0 0.1
2017-Jul-18 01:58N 31°56' E 120°14'0 0.0
2017-Jul-18 01:28N 31°56' E 120°14'0 0.1
2017-Jul-18 00:53N 31°56' E 120°14'0 0.0
2017-Jul-18 00:23N 31°56' E 120°14'0 0.0
2017-Jul-17 23:05N 31°56' E 120°14'0 0.0
2017-Jul-17 22:40N 31°56' E 120°14'0 0.0
2017-Jul-17 20:46N 31°56' E 120°14'0 0.2
2017-Jul-17 20:29N 31°56' E 120°14'0 0.0
2017-Jul-17 19:11N 31°56' E 120°14'0 0.0
2017-Jul-17 18:58N 31°56' E 120°14'0 0.0
2017-Jul-17 18:28N 31°56' E 120°14'0 0.1
2017-Jul-17 17:58N 31°56' E 120°14'0 0.1
2017-Jul-17 17:23N 31°56' E 120°14'0 0.0
2017-Jul-17 16:52N 31°56' E 120°14'0 0.0
2017-Jul-17 16:10N 31°56' E 120°14'  

Dump ship's entire track history